Ottawa Macdonald-Cartier International Airport

CYOW · Ontario, Canada

METAR history CYOW · Ottawa Macdonald-Cartier International Airport

Below you see METARs of the last few days. Select a year to browse through older METARs, from the year 2007 onwards.

December 5, 2022

Time Code Weather Temp. Visibility Ceiling Wind METAR/SPECI
06:00
V
1 °C 15 mi - 200° 200° 11 - 20 kt METAR CYOW 051100Z 20011G20KT 15SM FEW140 SCT160 01/M04 A2995 RMK AC1AC2 SLP148
05:00
V
1 °C 15 mi 13,000 ft 190° 190° 11 - 16 kt METAR CYOW 051000Z 19011G16KT 15SM BKN130 BKN150 01/M04 A2993 RMK AC5AC1 SLP144
04:00
V
1 °C 15 mi 12,000 ft 190° 190° 10 - 15 kt METAR CYOW 050900Z 19010G15KT 15SM FEW100 BKN120 01/M03 A2994 RMK AC2AC5 SLP147
03:00
V
0 °C 15 mi 9,000 ft 180° 180° 8 kt METAR CYOW 050800Z 18008KT 15SM FEW029 OVC090 00/M03 A2996 RMK SC2AC6 SLP152
02:00
V
0 °C 15 mi 8,500 ft 190° 190° 9 kt METAR CYOW 050700Z 19009KT 15SM OVC085 00/M04 A2995 RMK AC8 SLP151
01:00
V
0 °C 15 mi 9,000 ft 200° 200° 7 kt METAR CYOW 050600Z 20007KT 15SM FEW038 BKN090 M00/M05 A2996 RMK SC1AC7 SC TR SLP152
00:00
V
-1 °C 15 mi 11,000 ft 200° 200° 8 kt METAR CYOW 050500Z 20008KT 15SM BKN110 M01/M05 A2996 RMK AC7 SLP152

December 4, 2022

Time Code Weather Temp. Visibility Ceiling Wind METAR/SPECI
23:00
V
-1 °C 15 mi 11,000 ft 200° 200° 9 kt METAR CYOW 050400Z 20009KT 15SM FEW095 BKN110 M01/M06 A2996 RMK AC1AC6 SLP154
22:00
V
-1 °C 15 mi 12,000 ft 190° 190° 9 kt METAR CYOW 050300Z 19009KT 15SM BKN120 BKN140 M01/M06 A2997 RMK AC5AS2 SLP156
21:00
V
-1 °C 15 mi - 200° 200° 6 kt METAR CYOW 050200Z 20006KT 15SM FEW120 SCT150 M01/M06 A2998 RMK AC2AS2 SLP160
20:00
V
-1 °C 15 mi 15,000 ft 210° 210° 9 - 16 kt METAR CYOW 050100Z 21009G16KT 15SM FEW130 BKN150 M01/M07 A2999 RMK AC2AS5 SLP165
19:00
V
-1 °C 15 mi 15,000 ft 210° 210° 11 - 22 kt METAR CYOW 050000Z 21011G22KT 15SM FEW046 BKN150 M01/M06 A3000 RMK SC1AC4 SLP166
18:00
V
0 °C 15 mi 4,700 ft 200° 200° 10 kt METAR CYOW 042300Z 20010KT 15SM BKN047 BKN170 M00/M05 A2999 RMK SC5AC1 SLP165
17:00
V
-1 °C 15 mi 24,000 ft 200° 200° 6 kt METAR CYOW 042200Z 20006KT 15SM SCT070 BKN240 M01/M06 A2998 RMK AC3CI2 SLP162
16:00
V
1 °C 15 mi 7,300 ft 190° 190° 8 kt METAR CYOW 042100Z 19008KT 15SM FEW020 BKN073 BKN270 01/M07 A2998 RMK CU1AC5CI1 CU TR SLP161
15:00
V
1 °C 15 mi 10,000 ft 200° 200° 11 - 17 kt METAR CYOW 042000Z 20011G17KT 15SM FEW020 BKN100 01/M07 A3000 RMK CU1AS5 SLP167
14:20
V
1 °C 15 mi 4,600 ft 210° 210° 12 - 17 kt METAR CYOW 041920Z 21012G17KT 15SM OVC046 01/M07 A3001 RMK SC8 SLP172
14:00
V
0 °C 15 mi 3,700 ft 180° 180° 8 - 15 kt METAR CYOW 041900Z 18008G15KT 15SM -SN OVC037 00/M06 A3002 RMK SC8 FLURRIES SLP175
13:27
V
0 °C 15 mi 3,000 ft 160° 160° 8 kt METAR CYOW 041827Z 16008KT 15SM -SN OVC030 M00/M06 A3003 RMK SC8 SLP179
13:00
V
-1 °C 15 mi 5,500 ft 140° 140° 8 kt METAR CYOW 041800Z 14008KT 15SM FEW030 OVC055 M01/M07 A3005 RMK SC2SC6 SLP184
12:00
V
-2 °C 15 mi 3,000 ft 150° 150° 6 kt METAR CYOW 041700Z 15006KT 15SM OVC030 M02/M08 A3009 RMK SC8 SLP198
11:00
M
-3 °C 15 mi 2,800 ft 150° 150° 4 kt METAR CYOW 041600Z 15004KT 15SM OVC028 M03/M10 A3011 RMK SC8 SLP205
10:00
V
-4 °C 15 mi 4,700 ft Var Var 2 kt METAR CYOW 041500Z VRB02KT 15SM BKN047 OVC070 M04/M10 A3014 RMK SC5AC3 SLP215
09:00
V
-4 °C 15 mi 7,000 ft Var Var 2 kt METAR CYOW 041400Z VRB02KT 15SM OVC070 M04/M09 A3016 RMK AC8 SLP223
08:00
V
-5 °C 15 mi 5,700 ft Var Var 2 kt METAR CYOW 041300Z VRB02KT 15SM BKN057 M05/M10 A3018 RMK SC7 SLP229
07:00
V
-7 °C 15 mi - 260° 260° 5 kt METAR CYOW 041200Z 26005KT 15SM SCT050 M07/M11 A3018 RMK SC3 SLP229
06:00
V
-6 °C 15 mi - 280° 280° 7 kt METAR CYOW 041100Z 28007KT 15SM FEW052 M06/M11 A3018 RMK SC2 SLP226
05:00
V
-5 °C 15 mi - 270° 270° 11 kt METAR CYOW 041000Z 27011KT 15SM SCT050 M05/M10 A3018 RMK SC3 SLP227
04:00
V
-4 °C 15 mi - 280° 280° 12 kt METAR CYOW 040900Z 28012KT 15SM SCT052 M04/M10 A3016 RMK SC4 SLP221
03:00
V
-3 °C 15 mi 5,600 ft 280° 280° 12 - 21 kt METAR CYOW 040800Z 28012G21KT 15SM BKN056 M03/M10 A3016 RMK SC7 SLP219
02:00
V
-3 °C 15 mi - 310° 310° 12 kt METAR CYOW 040700Z 31012KT 15SM SCT056 M03/M09 A3012 RMK SC4 SLP208
01:00
V
-3 °C 15 mi - 280° 280° 12 - 20 kt METAR CYOW 040600Z 28012G20KT 15SM FEW049 M03/M09 A3012 RMK SC1 SLP205
00:00
V
-2 °C 15 mi 4,900 ft 290° 290° 15 - 20 kt METAR CYOW 040500Z 29015G20KT 15SM BKN049 M02/M08 A3010 RMK SC7 SLP199

December 3, 2022

Time Code Weather Temp. Visibility Ceiling Wind METAR/SPECI
23:00
V
-1 °C 15 mi 4,000 ft 280° 280° 21 kt METAR CYOW 040400Z 28021KT 15SM SCT030 OVC040 M01/M08 A3008 RMK SC3SC5 PRESRR SLP194
22:24
V
0 °C 15 mi 3,200 ft 290° 290° 16 - 26 kt METAR CYOW 040324Z 29016G26KT 15SM VCSH OVC032 M00/M07 A3006 RMK SC8 SH N QUAD SLP184
22:00
V
0 °C 15 mi 3,200 ft 300° 300° 20 - 25 kt METAR CYOW 040300Z 30020G25KT 15SM -SHSN BKN032 OVC040 M00/M06 A3005 RMK SC6SC2 CVCTV CLDS EMBD SLP182
21:00
V
1 °C 15 mi 3,200 ft 270° 270° 19 - 25 kt METAR CYOW 040200Z 27019G25KT 15SM OVC032 01/M06 A3001 RMK SC8 SLP170
20:00
M
2 °C 15 mi 2,900 ft 280° 280° 20 - 30 kt METAR CYOW 040100Z 28020G30KT 15SM BKN029 02/M04 A2997 RMK SC7 SLP156
19:30
V
2 °C 15 mi 3,000 ft 270° 270° 21 - 29 kt METAR CYOW 040030Z 27021G29KT 15SM OVC030 02/M03 A2995 RMK SC8 PRESRR SLP148
19:00
M
4 °C 15 mi 2,800 ft 270° 270° 16 - 25 kt METAR CYOW 040000Z 27016G25KT 15SM BKN028 OVC040 04/M01 A2991 RMK SC7SC1 PRESRR SLP135
18:00
V
4 °C 15 mi 4,700 ft 270° 270° 17 - 32 kt METAR CYOW 032300Z 27017G32KT 15SM FEW027 BKN047 04/M00 A2985 RMK SC2SC4 PRESRR SLP115
17:54
V
4 °C 15 mi 4,600 ft 260° 260° 19 - 27 kt METAR CYOW 032254Z 26019G27KT 15SM -RA SCT028 OVC046 04/M00 A2985 RMK SC3SC5 PRESRR SLP113
17:00
V
4 °C 15 mi 7,300 ft 260° 260° 16 - 26 kt METAR CYOW 032200Z 26016G26KT 15SM FEW046 BKN073 04/00 A2980 RMK SC2AC4 SLP096
16:00
V
5 °C 15 mi 7,000 ft 260° 260° 21 - 37 kt METAR CYOW 032100Z 26021G37KT 15SM SCT027 OVC070 05/01 A2973 RMK SC3AC5 PRESRR SLP072
15:22
M
6 °C 15 mi 2,000 ft 250° 250° 26 - 34 kt METAR CYOW 032022Z 25026G34KT 15SM BKN020 OVC060 06/03 A2966 RMK SC6SC2 PRESRR SLP049
15:00
V
7 °C 12 mi 3,300 ft 260° 260° 29 - 41 kt METAR CYOW 032000Z 26029G41KT 12SM -RA BKN033 07/04 A2961 RMK SC7 PRESRR SLP032
14:49
M
8 °C 15 mi 2,000 ft 240° 240° 24 - 30 kt METAR CYOW 031949Z 24024G30KT 15SM BKN020 OVC050 08/05 A2958 RMK SC6SC2 PRESRR SLP023
14:23
V
8 °C 10 mi 5,000 ft 260° 260° 22 - 29 kt METAR CYOW 031923Z 26022G29KT 10SM -RA OVC050 08/06 A2955 RMK SC8 SLP011
14:00
M
9 °C 5 mi 1,200 ft 210° 210° 20 - 30 kt METAR CYOW 031900Z 21020G30KT 5SM -RA BR OVC012 09/08 A2953 RMK SC8 PRESRR SLP006
13:00
M
8 °C 5 mi 1,200 ft 190° 190° 15 - 23 kt METAR CYOW 031800Z 19015G23KT 5SM -RA BR OVC012 08/07 A2953 RMK SC8 SLP006
12:54
M
8 °C 6 mi 1,200 ft 190° 190° 14 - 24 kt METAR CYOW 031754Z 19014G24KT 6SM -RA BR OVC012 08/07 A2954 RMK SC8 SLP007
12:00
M
8 °C 15 mi 1,200 ft 180° 180° 15 - 21 kt METAR CYOW 031700Z 18015G21KT 15SM OVC012 08/06 A2958 RMK SC8 PRESFR SLP021
11:00
M
7 °C 15 mi 1,600 ft 200° 200° 11 - 19 kt METAR CYOW 031600Z 20011G19KT 15SM OVC016 07/05 A2965 RMK SC8 SLP046
10:00
M
7 °C 15 mi 1,700 ft 190° 190° 15 - 23 kt METAR CYOW 031500Z 19015G23KT 15SM OVC017 07/04 A2969 RMK SC8 SLP058
09:00
M
6 °C 15 mi 1,500 ft 190° 190° 14 - 25 kt METAR CYOW 031400Z 19014G25KT 15SM OVC015 06/03 A2972 RMK SC8 SLP069
08:00
M
7 °C 15 mi 2,200 ft 190° 190° 14 - 23 kt METAR CYOW 031300Z 19014G23KT 15SM OVC022 07/01 A2974 RMK SC8 SLP076
07:00
V
5 °C 15 mi 5,000 ft 170° 170° 10 - 16 kt METAR CYOW 031200Z 17010G16KT 15SM SCT033 OVC050 05/M00 A2977 RMK SC4SC4 SLP088
06:00
V
5 °C 15 mi 3,800 ft 180° 180° 10 - 19 kt METAR CYOW 031100Z 18010G19KT 15SM OVC038 05/M01 A2979 RMK SC8 SLP094
05:00
V
5 °C 15 mi 5,000 ft 160° 160° 10 - 15 kt METAR CYOW 031000Z 16010G15KT 15SM OVC050 05/M02 A2981 RMK SC8 SLP102

We and third parties follow your internet behavior on our website with cookies. If you continue, we assume you agree with our cookie policy.